Time;durP1;ratioP1;P1;durP2;ratioP2;P2;SDS_P1;SDS_P2;PMS_P1;PMS_P2;Temp;Humidity;BMP_temperature;BMP_pressure;BME280_temperature;BME280_humidity;BME280_pressure;Samples;Min_cycle;Max_cycle;Signal;HPM_P1;HPM_P2
2020/12/21 06:02:31;;;;;;;13.80;7.60;;;3.10;97.30;;;;;;5094049;23;20507;-71
2020/12/21 06:05:08;;;;;;;14.77;7.17;;;3.10;97.30;;;;;;4917649;29;20788;-70
2020/12/21 06:07:35;;;;;;;13.47;7.13;;;3.00;97.30;;;;;;4916777;29;20464;-69
2020/12/21 06:10:05;;;;;;;17.03;7.70;;;3.00;97.30;;;;;;4917852;29;20508;-70
2020/12/21 06:12:42;;;;;;;14.77;7.23;;;2.90;97.30;;;;;;4917326;29;20440;-70
2020/12/21 06:15:12;;;;;;;14.73;7.00;;;2.80;97.30;;;;;;4917361;29;20449;-70
2020/12/21 06:17:38;;;;;;;15.03;6.90;;;2.70;97.30;;;;;;4917542;29;20421;-70
2020/12/21 06:20:09;;;;;;;15.90;7.83;;;2.70;97.30;;;;;;4918787;29;20781;-70
2020/12/21 06:22:38;;;;;;;16.37;7.40;;;2.70;97.30;;;;;;4917244;29;20456;-70
2020/12/21 06:25:05;;;;;;;14.43;7.77;;;2.80;97.30;;;;;;4917122;29;20456;-70
2020/12/21 06:27:41;;;;;;;11.93;6.50;;;2.80;97.30;;;;;;4918923;29;20417;-70
2020/12/21 06:30:10;;;;;;;16.83;8.30;;;2.80;97.30;;;;;;4919099;29;20426;-70
2020/12/21 06:32:37;;;;;;;17.13;8.10;;;2.80;97.30;;;;;;4918138;29;20519;-70
2020/12/21 06:35:16;;;;;;;15.20;7.30;;;2.80;97.30;;;;;;4915512;29;20426;-71
2020/12/21 06:37:42;;;;;;;16.73;7.77;;;2.70;97.30;;;;;;4917131;29;20412;-70
2020/12/21 06:40:07;;;;;;;16.53;8.20;;;2.70;97.30;;;;;;4917173;29;20426;-70
2020/12/21 06:42:33;;;;;;;16.17;7.77;;;2.70;97.30;;;;;;4914765;29;20188;-70
2020/12/21 06:45:11;;;;;;;14.47;8.20;;;2.70;97.30;;;;;;4916155;29;20263;-70
2020/12/21 06:47:36;;;;;;;16.57;8.10;;;2.70;97.30;;;;;;4914659;29;20598;-70
2020/12/21 06:50:02;;;;;;;13.90;7.17;;;2.70;97.30;;;;;;4917838;29;20433;-70
2020/12/21 06:52:28;;;;;;;16.50;8.20;;;2.70;97.30;;;;;;4918290;29;20201;-70
2020/12/21 06:54:53;;;;;;;16.10;7.50;;;2.70;97.30;;;;;;4917570;29;20859;-70
2020/12/21 06:57:19;;;;;;;16.70;8.47;;;2.70;97.30;;;;;;4917643;29;20207;-71
2020/12/21 06:59:45;;;;;;;20.10;7.87;;;2.70;97.30;;;;;;4917225;29;20165;-70
2020/12/21 07:02:12;;;;;;;21.63;9.00;;;2.70;97.30;;;;;;4917068;29;20215;-70
2020/12/21 07:04:41;;;;;;;15.17;7.63;;;2.70;97.30;;;;;;4916492;29;20690;-69
2020/12/21 07:07:06;;;;;;;16.10;8.60;;;2.70;97.30;;;;;;4916574;29;20424;-70
2020/12/21 07:09:37;;;;;;;12.93;7.10;;;2.60;97.30;;;;;;4916716;29;20435;-70
2020/12/21 07:12:05;;;;;;;15.10;7.23;;;2.70;97.30;;;;;;4916507;29;20196;-70
2020/12/21 07:14:35;;;;;;;17.67;8.57;;;2.60;97.30;;;;;;4916262;29;20424;-69
2020/12/21 07:17:05;;;;;;;18.33;8.20;;;2.70;97.30;;;;;;4917664;29;20536;-69
2020/12/21 07:19:35;;;;;;;19.90;9.20;;;2.70;97.30;;;;;;4916330;29;20425;-70
2020/12/21 07:22:02;;;;;;;17.67;8.50;;;2.70;97.30;;;;;;4916326;29;20856;-69
2020/12/21 07:24:29;;;;;;;20.37;8.47;;;2.70;97.30;;;;;;4915591;29;20813;-70
2020/12/21 07:26:54;;;;;;;13.60;7.27;;;2.70;97.30;;;;;;4917627;29;20495;-71
2020/12/21 07:29:21;;;;;;;17.73;7.90;;;2.80;97.30;;;;;;4917477;29;20529;-70
2020/12/21 07:31:47;;;;;;;14.43;8.33;;;2.80;97.30;;;;;;4917112;29;20662;-69
2020/12/21 07:34:13;;;;;;;17.57;7.67;;;2.80;97.30;;;;;;4915693;29;20425;-70
2020/12/21 07:36:39;;;;;;;13.20;7.80;;;2.80;97.30;;;;;;4915563;29;20461;-70
2020/12/21 07:39:10;;;;;;;16.63;8.33;;;2.70;97.30;;;;;;4916006;29;20435;-70
2020/12/21 07:41:37;;;;;;;15.13;8.77;;;2.70;97.30;;;;;;4915866;29;20471;-70
2020/12/21 07:44:07;;;;;;;14.53;8.00;;;2.60;97.30;;;;;;4915818;29;20417;-70
2020/12/21 07:46:41;;;;;;;16.87;7.43;;;2.40;97.30;;;;;;4916045;29;20508;-69
2020/12/21 07:49:09;;;;;;;15.60;8.10;;;2.30;97.30;;;;;;4916075;29;20417;-70
2020/12/21 07:51:38;;;;;;;13.70;7.20;;;2.20;97.30;;;;;;4916953;29;20945;-70
2020/12/21 07:54:05;;;;;;;17.40;7.90;;;2.20;97.30;;;;;;4915152;29;20449;-70
2020/12/21 07:56:31;;;;;;;17.03;8.00;;;2.20;97.30;;;;;;4916295;29;20471;-70
2020/12/21 07:58:57;;;;;;;18.90;8.60;;;2.20;97.30;;;;;;4915203;29;20424;-71
2020/12/21 08:01:23;;;;;;;17.83;8.77;;;2.20;97.30;;;;;;4915368;29;20506;-70
2020/12/21 08:03:55;;;;;;;16.93;8.80;;;2.30;97.30;;;;;;4915566;29;20184;-70
2020/12/21 08:06:25;;;;;;;20.00;9.00;;;2.40;97.30;;;;;;4915636;29;20429;-70
2020/12/21 08:08:51;;;;;;;23.07;9.27;;;2.50;97.30;;;;;;4916901;29;20508;-70
2020/12/21 08:11:19;;;;;;;16.70;8.43;;;2.60;97.30;;;;;;4915672;29;20444;-70
2020/12/21 08:13:51;;;;;;;17.70;8.53;;;2.70;97.30;;;;;;4915638;29;20431;-70
2020/12/21 08:16:24;;;;;;;22.80;10.00;;;2.70;97.30;;;;;;4915610;29;20800;-70
2020/12/21 08:18:51;;;;;;;17.87;9.17;;;2.80;97.30;;;;;;4914717;29;20425;-70
2020/12/21 08:21:17;;;;;;;18.63;8.33;;;2.80;97.30;;;;;;4915267;29;20444;-70
2020/12/21 08:23:51;;;;;;;23.60;9.40;;;2.90;97.30;;;;;;4915093;29;20472;-70
2020/12/21 08:26:17;;;;;;;19.60;8.47;;;2.90;97.30;;;;;;4900621;29;20194;-70
2020/12/21 08:28:43;;;;;;;24.33;9.37;;;3.00;97.30;;;;;;4915308;29;20429;-70
2020/12/21 08:31:13;;;;;;;20.30;9.40;;;3.10;97.30;;;;;;4914968;29;20208;-70
2020/12/21 08:33:55;;;;;;;20.90;8.30;;;3.10;97.30;;;;;;4913109;29;20248;-70
2020/12/21 08:36:27;;;;;;;20.47;8.10;;;3.20;97.30;;;;;;4906523;29;20471;-70
2020/12/21 08:38:53;;;;;;;27.73;9.47;;;3.30;97.30;;;;;;4916302;29;20516;-70
2020/12/21 08:41:19;;;;;;;16.17;8.40;;;3.40;97.30;;;;;;4914743;29;20950;-70
2020/12/21 08:43:46;;;;;;;18.20;8.70;;;3.50;97.30;;;;;;4916089;29;20412;-70
2020/12/21 08:46:13;;;;;;;16.57;7.50;;;3.60;97.30;;;;;;4914865;29;20503;-71
2020/12/21 08:48:41;;;;;;;17.77;8.33;;;3.70;97.30;;;;;;4914644;29;20444;-70
2020/12/21 08:51:07;;;;;;;17.20;7.90;;;3.70;97.30;;;;;;4915262;29;20459;-70
2020/12/21 08:53:34;;;;;;;19.70;8.20;;;3.80;97.30;;;;;;4915260;29;20452;-70
2020/12/21 08:55:59;;;;;;;15.30;7.87;;;3.90;97.30;;;;;;4915354;29;20468;-70
2020/12/21 08:58:25;;;;;;;14.63;8.10;;;3.90;97.30;;;;;;4915669;29;20965;-70
2020/12/21 09:00:51;;;;;;;15.80;7.97;;;4.00;97.30;;;;;;4916638;29;20247;-70
2020/12/21 09:03:16;;;;;;;15.67;8.13;;;4.00;97.30;;;;;;4915549;29;20176;-70
2020/12/21 09:05:42;;;;;;;17.77;8.97;;;4.00;97.30;;;;;;4915630;29;20184;-71
2020/12/21 09:08:08;;;;;;;18.33;8.60;;;4.10;97.30;;;;;;4915368;29;20184;-69
2020/12/21 09:10:33;;;;;;;17.77;7.70;;;4.10;97.30;;;;;;4916713;29;20328;-69
2020/12/21 09:12:59;;;;;;;16.87;9.07;;;4.20;97.30;;;;;;4915359;29;20647;-69
2020/12/21 09:15:25;;;;;;;19.43;8.10;;;4.30;97.30;;;;;;4916423;29;20692;-69
2020/12/21 09:17:51;;;;;;;14.23;7.87;;;4.40;97.30;;;;;;4915483;29;20423;-68
2020/12/21 09:20:16;;;;;;;16.27;7.93;;;4.50;97.30;;;;;;4916370;29;20185;-69
2020/12/21 09:22:42;;;;;;;22.47;8.67;;;4.50;97.30;;;;;;4915141;29;20189;-69
2020/12/21 09:25:08;;;;;;;14.70;7.40;;;4.60;97.30;;;;;;4918212;29;20176;-68
2020/12/21 09:27:33;;;;;;;17.70;8.70;;;4.60;97.30;;;;;;4919704;29;20234;-68
2020/12/21 09:29:59;;;;;;;18.20;8.40;;;4.70;97.30;;;;;;4918362;29;20252;-69
2020/12/21 09:32:25;;;;;;;13.67;7.03;;;4.80;97.30;;;;;;4918520;29;20200;-68
2020/12/21 09:34:50;;;;;;;15.00;7.80;;;4.90;97.30;;;;;;4919487;29;20223;-68
2020/12/21 09:37:19;;;;;;;14.70;7.50;;;4.90;97.30;;;;;;4918013;29;20231;-68
2020/12/21 09:39:45;;;;;;;13.33;6.50;;;5.00;97.30;;;;;;4918185;29;20177;-69
2020/12/21 09:42:10;;;;;;;13.30;7.00;;;5.00;97.30;;;;;;4919284;29;20512;-68
2020/12/21 09:44:36;;;;;;;12.93;6.70;;;5.00;97.30;;;;;;4919336;29;20706;-68
2020/12/21 09:47:02;;;;;;;13.57;7.20;;;5.10;97.30;;;;;;4919335;29;20517;-68
2020/12/21 09:49:27;;;;;;;14.77;6.80;;;5.30;97.30;;;;;;4918215;29;20191;-68
2020/12/21 09:51:53;;;;;;;13.50;7.13;;;5.40;97.30;;;;;;4918025;29;20204;-69
2020/12/21 09:54:19;;;;;;;12.77;7.00;;;5.50;97.30;;;;;;4917695;29;20323;-69
2020/12/21 09:56:49;;;;;;;11.73;7.07;;;5.70;97.30;;;;;;4917428;29;20224;-69
2020/12/21 09:59:15;;;;;;;13.83;6.70;;;5.80;97.30;;;;;;4919198;29;20510;-69
2020/12/21 10:01:40;;;;;;;13.00;6.20;;;6.00;97.30;;;;;;4918791;29;20547;-69
2020/12/21 10:04:06;;;;;;;9.47;6.37;;;6.10;97.30;;;;;;4918012;29;20187;-68
2020/12/21 10:06:32;;;;;;;9.40;5.80;;;6.30;97.30;;;;;;4918886;29;20177;-69
2020/12/21 10:08:57;;;;;;;11.80;6.07;;;6.40;97.30;;;;;;4917547;29;20180;-69
2020/12/21 10:11:23;;;;;;;13.10;6.27;;;6.50;97.30;;;;;;4918884;29;20196;-68
2020/12/21 10:13:48;;;;;;;9.80;5.80;;;6.60;97.30;;;;;;4917555;29;20184;-68
2020/12/21 10:16:15;;;;;;;8.27;4.83;;;6.70;97.30;;;;;;4918826;29;20786;-68
2020/12/21 10:18:40;;;;;;;10.13;5.20;;;6.70;97.30;;;;;;4917818;29;20184;-68
2020/12/21 10:21:07;;;;;;;9.57;5.00;;;6.80;97.30;;;;;;4918697;29;20435;-68
2020/12/21 10:23:33;;;;;;;7.40;4.70;;;6.90;97.30;;;;;;4915864;29;20678;-69
2020/12/21 10:26:03;;;;;;;8.53;4.63;;;7.00;97.30;;;;;;4918117;29;20431;-68
2020/12/21 10:28:29;;;;;;;9.30;5.27;;;7.10;97.30;;;;;;4917486;29;20468;-70
2020/12/21 10:30:55;;;;;;;10.37;5.87;;;7.20;97.30;;;;;;4918572;29;20479;-70
2020/12/21 10:33:20;;;;;;;9.60;4.60;;;7.30;97.30;;;;;;4917151;29;20934;-71
2020/12/21 10:35:46;;;;;;;11.80;5.80;;;7.30;97.30;;;;;;4916940;29;20200;-71
2020/12/21 10:38:12;;;;;;;9.93;4.83;;;7.30;97.30;;;;;;4915749;29;20632;-71
2020/12/21 10:40:37;;;;;;;9.13;5.47;;;7.40;97.30;;;;;;4918564;29;20200;-71
2020/12/21 10:43:03;;;;;;;6.90;4.93;;;7.40;97.30;;;;;;4918244;29;20548;-71
2020/12/21 10:45:29;;;;;;;8.80;5.17;;;7.50;97.30;;;;;;4918379;29;20666;-71
2020/12/21 10:47:54;;;;;;;7.13;4.67;;;7.70;97.30;;;;;;4917163;29;20188;-71
2020/12/21 10:50:20;;;;;;;6.83;4.63;;;7.80;97.30;;;;;;4917163;29;20185;-70
2020/12/21 10:52:46;;;;;;;7.50;5.40;;;8.00;97.30;;;;;;4918298;29;20180;-71
2020/12/21 10:55:11;;;;;;;10.97;4.70;;;8.00;97.30;;;;;;4917964;29;20187;-70
2020/12/21 10:57:38;;;;;;;8.43;5.73;;;8.10;97.30;;;;;;4916694;29;20647;-70
2020/12/21 11:00:06;;;;;;;11.17;5.10;;;8.10;97.30;;;;;;4917927;29;20173;-70
2020/12/21 11:02:32;;;;;;;7.57;5.00;;;8.20;97.30;;;;;;4916353;29;20452;-71
2020/12/21 11:04:57;;;;;;;9.33;5.30;;;8.30;97.30;;;;;;4916697;29;21047;-71
2020/12/21 11:07:23;;;;;;;8.07;4.70;;;8.30;97.30;;;;;;4916742;29;20185;-71
2020/12/21 11:09:48;;;;;;;14.77;5.20;;;8.30;97.30;;;;;;4917935;29;20181;-70
2020/12/21 11:12:14;;;;;;;8.70;5.07;;;8.40;97.30;;;;;;4917893;29;20275;-70
2020/12/21 11:14:40;;;;;;;13.10;6.13;;;8.50;97.30;;;;;;4916581;29;20217;-69
2020/12/21 11:17:05;;;;;;;7.40;5.07;;;8.60;97.30;;;;;;4917638;29;20243;-68
2020/12/21 11:19:31;;;;;;;7.27;4.60;;;8.60;97.30;;;;;;4916599;29;20208;-68
2020/12/21 11:21:57;;;;;;;7.90;4.53;;;8.50;97.30;;;;;;4916215;29;20247;-69
2020/12/21 11:24:22;;;;;;;7.47;4.90;;;8.60;97.30;;;;;;4916726;29;20196;-69
2020/12/21 11:26:54;;;;;;;6.60;4.60;;;8.60;97.30;;;;;;4916024;29;20195;-69
2020/12/21 11:29:23;;;;;;;10.97;5.47;;;8.60;97.30;;;;;;4917077;29;20248;-69
2020/12/21 11:31:49;;;;;;;8.57;5.27;;;8.50;97.30;;;;;;4917232;29;20846;-72
2020/12/21 11:34:15;;;;;;;8.07;5.50;;;8.60;97.30;;;;;;4916222;29;20423;-69
2020/12/21 11:36:48;;;;;;;9.13;6.20;;;8.80;97.30;;;;;;4916672;29;20220;-71
2020/12/21 11:39:13;;;;;;;8.30;5.13;;;8.90;97.30;;;;;;4916251;29;20449;-69
2020/12/21 11:41:39;;;;;;;11.20;5.80;;;8.90;97.30;;;;;;4917233;29;20929;-69
2020/12/21 11:44:05;;;;;;;19.10;5.73;;;8.90;97.30;;;;;;4917282;29;20180;-70
2020/12/21 11:46:33;;;;;;;8.67;5.20;;;8.80;97.30;;;;;;4916519;29;20208;-70
2020/12/21 11:49:00;;;;;;;9.23;5.97;;;8.60;97.30;;;;;;4916720;29;20504;-70
2020/12/21 11:51:26;;;;;;;17.37;6.10;;;8.50;97.30;;;;;;4915443;29;20444;-69
2020/12/21 11:53:53;;;;;;;10.00;6.07;;;8.40;97.30;;;;;;4914976;29;20936;-71
2020/12/21 11:56:19;;;;;;;13.10;6.10;;;8.50;97.30;;;;;;4914979;29;20592;-70
2020/12/21 11:58:46;;;;;;;19.60;6.43;;;8.60;97.30;;;;;;4912736;29;20417;-70
2020/12/21 12:01:14;;;;;;;10.90;6.00;;;8.70;97.30;;;;;;4916490;29;20455;-70
2020/12/21 12:03:40;;;;;;;8.37;5.90;;;9.00;97.30;;;;;;4915184;29;20421;-70
2020/12/21 12:06:06;;;;;;;14.10;6.57;;;9.40;97.30;;;;;;4915327;29;20416;-70
2020/12/21 12:08:32;;;;;;;12.07;5.60;;;9.50;97.30;;;;;;4916666;29;20176;-70
2020/12/21 12:10:58;;;;;;;10.10;5.27;;;9.60;97.30;;;;;;4915328;29;20686;-70
2020/12/21 12:13:24;;;;;;;11.60;5.60;;;9.90;97.30;;;;;;4916187;29;20834;-70
2020/12/21 12:15:50;;;;;;;8.83;5.40;;;9.90;97.30;;;;;;4916719;29;20452;-70
2020/12/21 12:18:16;;;;;;;9.57;5.87;;;9.80;97.30;;;;;;4916281;29;20408;-70
2020/12/21 12:20:42;;;;;;;12.37;6.30;;;9.90;97.30;;;;;;4915138;29;20255;-70
2020/12/21 12:23:07;;;;;;;15.27;6.40;;;9.90;97.30;;;;;;4915211;29;20228;-70
2020/12/21 12:25:33;;;;;;;10.07;5.90;;;9.90;97.30;;;;;;4916457;29;20546;-70
2020/12/21 12:28:00;;;;;;;12.37;6.00;;;9.70;97.30;;;;;;4915086;29;20642;-70
2020/12/21 12:30:26;;;;;;;9.10;6.10;;;9.60;97.30;;;;;;4915204;29;20612;-71
2020/12/21 12:32:51;;;;;;;10.23;4.90;;;9.60;97.30;;;;;;4914947;29;20468;-70
2020/12/21 12:35:17;;;;;;;10.10;5.83;;;9.60;97.30;;;;;;4914973;29;20212;-70
2020/12/21 12:37:43;;;;;;;8.47;5.83;;;9.60;97.30;;;;;;4915018;29;20176;-70
2020/12/21 12:40:08;;;;;;;12.33;6.10;;;9.50;97.30;;;;;;4916616;29;20181;-70
2020/12/21 12:42:34;;;;;;;12.23;6.30;;;9.60;97.30;;;;;;4916485;29;20609;-70
2020/12/21 12:45:00;;;;;;;9.30;6.30;;;9.80;97.30;;;;;;4914766;29;20180;-70
2020/12/21 12:47:25;;;;;;;12.03;5.47;;;10.10;97.30;;;;;;4916097;29;20177;-70
2020/12/21 12:49:51;;;;;;;9.17;6.03;;;10.30;97.30;;;;;;4916299;29;20207;-71
2020/12/21 12:52:17;;;;;;;11.03;6.00;;;10.60;97.30;;;;;;4914718;29;20575;-70
2020/12/21 12:54:43;;;;;;;9.87;5.43;;;10.70;97.30;;;;;;4915099;29;20267;-70
2020/12/21 12:57:09;;;;;;;7.90;4.80;;;10.70;97.30;;;;;;4914320;29;21088;-70
2020/12/21 12:59:34;;;;;;;9.33;5.23;;;10.70;97.30;;;;;;4916394;29;20537;-70
2020/12/21 13:02:00;;;;;;;13.80;6.23;;;10.70;97.30;;;;;;4918130;29;20752;-70
2020/12/21 13:04:26;;;;;;;8.53;5.37;;;10.10;97.30;;;;;;4918301;29;20211;-70
2020/12/21 13:06:53;;;;;;;8.73;4.83;;;9.70;97.30;;;;;;4919041;29;20180;-71
2020/12/21 13:09:20;;;;;;;13.70;5.80;;;9.40;97.30;;;;;;4920156;29;20426;-70
2020/12/21 13:11:45;;;;;;;11.70;5.53;;;9.20;97.30;;;;;;4919856;29;20930;-70
2020/12/21 13:14:11;;;;;;;8.37;5.00;;;9.30;97.30;;;;;;4919366;29;20543;-70
2020/12/21 13:16:39;;;;;;;8.43;5.70;;;9.30;97.30;;;;;;4918421;29;20219;-70
2020/12/21 13:19:05;;;;;;;9.90;5.20;;;9.30;97.30;;;;;;4918246;29;20775;-70
2020/12/21 13:21:31;;;;;;;16.67;6.30;;;9.20;97.30;;;;;;4919459;29;20439;-70
2020/12/21 13:23:57;;;;;;;9.43;6.20;;;9.10;97.30;;;;;;4917852;29;20825;-69
2020/12/21 13:26:23;;;;;;;8.20;5.33;;;9.20;97.30;;;;;;4917879;29;20432;-69
2020/12/21 13:28:48;;;;;;;10.50;6.30;;;9.30;97.30;;;;;;4919509;29;20259;-69
2020/12/21 13:31:15;;;;;;;9.87;5.23;;;9.20;97.30;;;;;;4918382;29;20204;-69
2020/12/21 13:33:44;;;;;;;10.43;6.40;;;9.20;97.30;;;;;;4918000;29;20806;-69
2020/12/21 13:36:10;;;;;;;12.10;6.40;;;9.20;97.30;;;;;;4919548;29;20535;-69
2020/12/21 13:38:39;;;;;;;11.50;6.27;;;9.00;97.30;;;;;;4918434;29;20507;-69
2020/12/21 13:41:09;;;;;;;20.60;6.23;;;9.00;97.30;;;;;;4918369;29;20505;-69
2020/12/21 13:43:37;;;;;;;12.87;6.83;;;8.80;97.30;;;;;;4919091;29;20420;-69
2020/12/21 13:46:03;;;;;;;13.10;6.67;;;8.70;97.30;;;;;;4918075;29;20416;-69
2020/12/21 13:48:28;;;;;;;14.80;6.80;;;8.60;97.30;;;;;;4918074;29;20629;-69
2020/12/21 13:50:54;;;;;;;12.47;7.43;;;8.70;97.30;;;;;;4918096;29;20444;-69
2020/12/21 13:53:20;;;;;;;13.00;6.77;;;8.70;97.30;;;;;;4917787;29;20200;-69
2020/12/21 13:55:49;;;;;;;11.73;6.20;;;8.80;97.30;;;;;;4917983;29;20676;-69
2020/12/21 13:58:15;;;;;;;12.17;6.70;;;8.80;97.30;;;;;;4918990;29;20596;-69
2020/12/21 14:00:40;;;;;;;11.27;5.77;;;8.70;97.30;;;;;;4917168;29;21029;-70
2020/12/21 14:03:06;;;;;;;12.37;5.73;;;8.70;97.30;;;;;;4915735;29;20180;-70
2020/12/21 14:05:32;;;;;;;7.73;5.50;;;8.70;97.30;;;;;;4918502;29;20187;-70
2020/12/21 14:07:57;;;;;;;12.30;6.17;;;8.70;97.30;;;;;;4918906;29;20189;-69
2020/12/21 14:10:23;;;;;;;11.23;5.93;;;8.80;97.30;;;;;;4917507;29;20245;-69
2020/12/21 14:12:49;;;;;;;8.33;5.00;;;8.80;97.30;;;;;;4918573;29;20244;-69
2020/12/21 14:15:14;;;;;;;9.67;5.40;;;8.60;97.30;;;;;;4918559;29;20232;-69
2020/12/21 14:17:40;;;;;;;9.70;5.10;;;8.40;97.30;;;;;;4917653;29;20177;-69
2020/12/21 14:20:06;;;;;;;12.37;6.47;;;8.30;97.30;;;;;;4917548;29;20177;-69
2020/12/21 14:22:31;;;;;;;11.20;6.00;;;8.40;97.30;;;;;;4917413;29;20197;-69
2020/12/21 14:24:57;;;;;;;10.73;5.90;;;8.40;97.30;;;;;;4918172;29;20247;-69
2020/12/21 14:27:23;;;;;;;7.73;4.83;;;8.50;97.30;;;;;;4917074;29;20192;-70
2020/12/21 14:29:48;;;;;;;8.90;5.50;;;8.50;97.30;;;;;;4918005;29;20185;-69
2020/12/21 14:32:15;;;;;;;12.40;5.73;;;8.40;97.30;;;;;;4917404;29;20370;-70
2020/12/21 14:34:41;;;;;;;9.33;5.30;;;8.20;97.30;;;;;;4917132;29;20184;-70
2020/12/21 14:37:07;;;;;;;10.70;6.20;;;7.90;97.30;;;;;;4916921;29;20503;-69
2020/12/21 14:39:33;;;;;;;12.77;6.33;;;7.70;97.30;;;;;;4917380;29;20934;-69
2020/12/21 14:42:01;;;;;;;12.37;6.20;;;7.50;97.30;;;;;;4916794;29;20584;-69
2020/12/21 14:44:28;;;;;;;10.97;5.67;;;7.30;97.30;;;;;;4916292;29;20421;-69
2020/12/21 14:46:54;;;;;;;10.70;4.93;;;7.20;97.30;;;;;;4917775;29;20519;-69
2020/12/21 14:49:20;;;;;;;12.63;6.07;;;7.10;97.30;;;;;;4916820;29;20420;-69
2020/12/21 14:51:50;;;;;;;8.47;5.60;;;7.00;97.30;;;;;;4916748;29;21029;-69
2020/12/21 14:54:16;;;;;;;13.67;5.83;;;6.90;97.30;;;;;;4916346;29;20177;-70
2020/12/21 14:56:41;;;;;;;12.77;5.60;;;6.80;97.30;;;;;;4916498;29;20479;-69
2020/12/21 14:59:07;;;;;;;15.13;5.60;;;6.80;97.30;;;;;;4916149;29;20189;-70
2020/12/21 15:01:34;;;;;;;11.73;5.60;;;6.70;97.30;;;;;;4916603;29;20280;-69
2020/12/21 15:03:59;;;;;;;12.30;5.80;;;6.70;97.30;;;;;;4917898;29;20177;-70
2020/12/21 15:06:25;;;;;;;9.87;4.80;;;6.60;97.30;;;;;;4916569;29;20793;-69
2020/12/21 15:08:51;;;;;;;9.73;6.03;;;6.50;97.30;;;;;;4917549;29;20427;-70
2020/12/21 15:11:17;;;;;;;8.97;5.00;;;6.50;97.30;;;;;;4915980;29;20267;-70
2020/12/21 15:13:43;;;;;;;19.20;5.60;;;6.40;97.30;;;;;;4916467;29;20204;-70
2020/12/21 15:16:11;;;;;;;9.87;5.30;;;6.40;97.30;;;;;;4917387;29;20471;-70
2020/12/21 15:18:41;;;;;;;8.07;5.43;;;6.30;97.30;;;;;;4917750;29;20825;-70
2020/12/21 15:21:09;;;;;;;10.50;5.53;;;6.30;97.30;;;;;;4916343;29;21066;-70
2020/12/21 15:23:35;;;;;;;8.80;4.87;;;6.20;97.30;;;;;;4915571;29;20476;-70
2020/12/21 15:26:01;;;;;;;9.00;5.03;;;6.20;97.30;;;;;;4916296;29;20417;-70
2020/12/21 15:28:27;;;;;;;8.17;5.47;;;6.20;97.30;;;;;;4917607;29;20503;-70
2020/12/21 15:30:53;;;;;;;9.80;5.80;;;6.20;97.30;;;;;;4917450;29;20436;-70
2020/12/21 15:33:19;;;;;;;11.67;5.80;;;6.10;97.30;;;;;;4917320;29;20916;-70
2020/12/21 15:35:45;;;;;;;12.23;5.97;;;6.10;97.30;;;;;;4915452;29;20456;-69
2020/12/21 15:38:12;;;;;;;12.37;5.53;;;6.10;97.30;;;;;;4915236;29;20429;-70
2020/12/21 15:40:38;;;;;;;8.00;5.07;;;6.10;97.30;;;;;;4915555;29;20203;-69
2020/12/21 15:43:05;;;;;;;13.47;5.63;;;6.00;97.30;;;;;;4916185;29;20495;-70
2020/12/21 15:45:31;;;;;;;8.80;5.50;;;5.90;97.30;;;;;;4916119;29;20445;-70
2020/12/21 15:47:57;;;;;;;8.83;4.90;;;5.80;97.30;;;;;;4921927;29;20507;-70
2020/12/21 15:50:23;;;;;;;12.03;5.37;;;5.80;97.30;;;;;;4925251;29;20479;-71
2020/12/21 15:52:49;;;;;;;8.30;5.20;;;5.80;97.30;;;;;;4924450;29;20209;-70
2020/12/21 15:55:17;;;;;;;12.30;6.20;;;5.80;97.30;;;;;;4923536;29;20421;-70
2020/12/21 15:57:43;;;;;;;15.60;5.60;;;5.80;97.30;;;;;;4926562;29;20468;-70
2020/12/21 16:00:09;;;;;;;10.70;5.63;;;5.80;97.30;;;;;;4926013;29;20416;-70
2020/12/21 16:02:35;;;;;;;11.60;5.93;;;5.80;97.30;;;;;;4924719;29;20218;-70
2020/12/21 16:05:01;;;;;;;10.07;5.63;;;5.80;97.30;;;;;;4915212;29;20511;-70
2020/12/21 16:07:27;;;;;;;14.30;6.77;;;5.70;97.30;;;;;;4915281;29;20184;-72
2020/12/21 16:09:53;;;;;;;16.00;7.10;;;5.70;97.30;;;;;;4915874;29;20417;-70
2020/12/21 16:12:19;;;;;;;12.97;6.70;;;5.70;97.30;;;;;;4915877;29;20272;-70
2020/12/21 16:14:45;;;;;;;10.43;5.87;;;5.70;97.30;;;;;;4916271;29;20412;-70
2020/12/21 16:17:11;;;;;;;12.30;6.03;;;5.70;97.30;;;;;;4916164;29;20834;-70
2020/12/21 16:19:37;;;;;;;11.50;5.77;;;5.70;97.30;;;;;;4916555;29;20556;-70
2020/12/21 16:22:06;;;;;;;11.00;5.93;;;5.70;97.30;;;;;;4915299;29;20256;-72
2020/12/21 16:24:32;;;;;;;8.73;5.67;;;5.70;97.30;;;;;;4915275;29;20789;-70
2020/12/21 16:27:01;;;;;;;11.90;6.47;;;5.80;97.30;;;;;;4916707;29;20424;-69
2020/12/21 16:29:28;;;;;;;12.10;5.33;;;5.80;97.30;;;;;;4916579;29;20189;-70
2020/12/21 16:31:54;;;;;;;9.67;5.47;;;5.70;97.30;;;;;;4915250;29;21057;-70
2020/12/21 16:34:20;;;;;;;12.00;5.30;;;5.60;97.30;;;;;;4913881;29;20452;-70
2020/12/21 16:36:46;;;;;;;7.30;5.00;;;5.60;97.30;;;;;;4916329;29;20856;-70
2020/12/21 16:39:13;;;;;;;10.90;5.20;;;5.50;97.30;;;;;;4916593;29;20176;-69
2020/12/21 16:41:39;;;;;;;7.10;4.30;;;5.50;97.30;;;;;;4915110;29;20516;-70
2020/12/21 16:44:05;;;;;;;9.67;5.77;;;5.50;97.30;;;;;;4916285;29;20915;-70
2020/12/21 16:46:31;;;;;;;8.47;5.43;;;5.50;97.30;;;;;;4915351;29;20224;-70
2020/12/21 16:48:58;;;;;;;8.47;5.33;;;5.50;97.30;;;;;;4914889;29;20882;-70
2020/12/21 16:51:24;;;;;;;7.77;5.47;;;5.50;97.30;;;;;;4915162;29;20451;-70
2020/12/21 16:53:50;;;;;;;9.83;5.13;;;5.50;97.30;;;;;;4916495;29;20417;-69
2020/12/21 16:56:24;;;;;;;8.90;5.57;;;5.50;97.30;;;;;;4914678;29;20536;-70
2020/12/21 16:58:51;;;;;;;10.57;5.30;;;5.50;97.30;;;;;;4915291;29;20420;-70
2020/12/21 17:01:18;;;;;;;7.73;5.10;;;5.50;97.30;;;;;;4915038;29;20994;-70
2020/12/21 17:03:45;;;;;;;8.47;4.47;;;5.50;97.30;;;;;;4915132;29;20938;-69
2020/12/21 17:06:16;;;;;;;9.00;4.70;;;5.60;97.30;;;;;;4915262;29;20431;-70
2020/12/21 17:08:42;;;;;;;7.50;4.43;;;5.60;97.30;;;;;;4916570;29;20473;-69
2020/12/21 17:11:13;;;;;;;9.03;5.20;;;5.60;97.30;;;;;;4915193;29;20451;-70
2020/12/21 17:13:42;;;;;;;9.20;4.97;;;5.60;97.30;;;;;;4916279;29;20429;-70
2020/12/21 17:16:08;;;;;;;8.90;5.20;;;5.60;97.30;;;;;;4914897;29;20816;-70
2020/12/21 17:18:33;;;;;;;6.93;4.60;;;5.70;97.30;;;;;;4916628;29;20412;-70
2020/12/21 17:20:59;;;;;;;9.00;5.27;;;5.70;97.30;;;;;;4916364;29;20519;-70
2020/12/21 17:23:25;;;;;;;10.13;5.67;;;5.70;97.30;;;;;;4915043;29;20176;-70
2020/12/21 17:25:52;;;;;;;8.03;4.90;;;5.70;97.30;;;;;;4915764;29;20519;-70
2020/12/21 17:28:18;;;;;;;9.60;5.77;;;5.80;97.30;;;;;;4916900;29;20184;-70
2020/12/21 17:30:44;;;;;;;9.80;5.63;;;5.80;97.30;;;;;;4916185;29;20463;-70
2020/12/21 17:33:10;;;;;;;10.17;5.67;;;5.80;97.30;;;;;;4914966;29;20424;-69
2020/12/21 17:35:36;;;;;;;8.60;4.90;;;5.80;97.30;;;;;;4916234;29;20420;-69
2020/12/21 17:38:02;;;;;;;7.50;5.27;;;5.80;97.30;;;;;;4916433;29;20774;-69
2020/12/21 17:40:27;;;;;;;8.00;5.03;;;5.80;97.30;;;;;;4915894;29;20196;-69
2020/12/21 17:42:53;;;;;;;8.77;4.80;;;5.80;97.30;;;;;;4915281;29;20424;-69
2020/12/21 17:45:19;;;;;;;8.20;5.30;;;5.80;97.30;;;;;;4917088;29;20657;-69
2020/12/21 17:47:44;;;;;;;9.20;5.40;;;5.80;97.30;;;;;;4919762;29;20719;-69
2020/12/21 17:50:10;;;;;;;10.60;6.03;;;5.80;97.30;;;;;;4918426;29;20181;-69
2020/12/21 17:52:41;;;;;;;11.43;5.83;;;5.70;97.30;;;;;;4918112;29;20231;-70
2020/12/21 17:55:09;;;;;;;10.80;5.70;;;5.60;97.30;;;;;;4917984;29;20223;-69
2020/12/21 17:57:39;;;;;;;9.93;6.20;;;5.60;97.30;;;;;;4917691;29;20578;-70
2020/12/21 18:00:07;;;;;;;8.70;5.60;;;5.60;97.30;;;;;;4917915;29;20460;-70
2020/12/21 18:02:33;;;;;;;10.80;6.40;;;5.60;97.30;;;;;;4917502;29;20476;-69
2020/12/21 18:04:59;;;;;;;9.53;6.13;;;5.60;97.30;;;;;;4918974;29;20456;-69
2020/12/21 18:07:30;;;;;;;9.93;5.50;;;5.70;97.30;;;;;;4917951;29;20548;-69
2020/12/21 18:10:00;;;;;;;8.30;5.50;;;5.70;97.30;;;;;;4918339;29;20424;-70
2020/12/21 18:12:26;;;;;;;10.63;5.77;;;5.70;97.30;;;;;;4917810;29;20475;-70
2020/12/21 18:14:52;;;;;;;12.10;7.10;;;5.80;97.30;;;;;;4917690;29;20448;-69
2020/12/21 18:17:18;;;;;;;13.73;6.93;;;5.80;97.30;;;;;;4918431;29;20470;-70
2020/12/21 18:19:44;;;;;;;10.47;5.57;;;5.80;97.30;;;;;;4917745;29;20420;-70
2020/12/21 18:22:10;;;;;;;8.93;5.20;;;5.80;97.30;;;;;;4917465;29;20492;-70
2020/12/21 18:24:35;;;;;;;8.27;5.40;;;5.70;97.30;;;;;;4917412;29;20291;-70
2020/12/21 18:27:01;;;;;;;13.13;5.73;;;5.70;97.30;;;;;;4917265;29;20188;-70
2020/12/21 18:29:26;;;;;;;9.77;5.80;;;5.80;97.30;;;;;;4917332;29;20185;-69
2020/12/21 18:31:52;;;;;;;10.50;5.50;;;5.80;97.30;;;;;;4917325;29;20204;-69
2020/12/21 18:34:20;;;;;;;11.73;8.13;;;5.80;97.30;;;;;;4917050;29;20610;-70
2020/12/21 18:36:48;;;;;;;12.27;6.40;;;5.80;97.30;;;;;;4918422;29;20609;-70
2020/12/21 18:39:14;;;;;;;10.93;6.50;;;5.80;97.30;;;;;;4917326;29;20428;-69
2020/12/21 18:41:41;;;;;;;11.17;6.10;;;5.80;97.30;;;;;;4916993;29;20449;-69
2020/12/21 18:44:07;;;;;;;12.27;5.50;;;5.90;97.30;;;;;;4917112;29;20424;-70
2020/12/21 18:46:40;;;;;;;10.97;6.60;;;6.00;97.30;;;;;;4917219;29;20420;-70
2020/12/21 18:49:06;;;;;;;7.97;5.53;;;6.00;97.30;;;;;;4917341;29;20269;-70